Time;durP1;ratioP1;P1;durP2;ratioP2;P2;SDS_P1;SDS_P2;PMS_P1;PMS_P2;Temp;Humidity;BMP_temperature;BMP_pressure;BME280_temperature;BME280_humidity;BME280_pressure;Samples;Min_cycle;Max_cycle;Signal;HPM_P1;HPM_P2
2021/03/17 00:01:11;;;;;;;5.57;3.70;;;10.30;99.90;;;;;;4992551;28;20045;-87
2021/03/17 00:03:38;;;;;;;7.72;3.75;;;10.30;99.90;;;;;;4997327;28;20064;-86
2021/03/17 00:06:05;;;;;;;8.20;3.20;;;10.30;99.90;;;;;;5000498;28;20077;-87
2021/03/17 00:08:31;;;;;;;4.88;3.40;;;10.30;99.90;;;;;;5003458;28;20368;-87
2021/03/17 00:10:58;;;;;;;7.40;3.42;;;10.30;99.90;;;;;;4991111;28;20127;-86
2021/03/17 00:13:26;;;;;;;7.68;3.10;;;10.30;99.90;;;;;;4990941;28;20050;-87
2021/03/17 00:15:56;;;;;;;7.40;3.75;;;10.30;99.90;;;;;;4994041;28;20399;-86
2021/03/17 00:18:23;;;;;;;8.38;3.47;;;10.30;99.90;;;;;;4987965;28;20054;-86
2021/03/17 00:20:50;;;;;;;5.68;3.60;;;10.30;99.90;;;;;;4994307;28;20065;-86
2021/03/17 00:23:18;;;;;;;7.13;3.75;;;10.30;99.90;;;;;;4990559;28;20406;-86
2021/03/17 00:25:45;;;;;;;7.53;3.97;;;10.30;99.90;;;;;;4992274;28;20045;-86
2021/03/17 00:28:13;;;;;;;6.28;3.42;;;10.30;99.90;;;;;;4989281;28;20050;-86
2021/03/17 00:30:41;;;;;;;7.28;3.40;;;10.30;99.90;;;;;;5008702;28;20096;-86
2021/03/17 00:33:13;;;;;;;6.57;3.08;;;10.30;99.90;;;;;;4992397;28;20080;-86
2021/03/17 00:35:40;;;;;;;5.72;3.63;;;10.30;99.90;;;;;;4992152;28;20037;-86
2021/03/17 00:38:09;;;;;;;7.68;3.67;;;10.30;99.90;;;;;;4994414;28;20045;-86
2021/03/17 00:40:36;;;;;;;5.72;3.72;;;10.30;99.90;;;;;;4993386;28;20041;-86
2021/03/17 00:43:03;;;;;;;8.82;4.00;;;10.30;99.90;;;;;;4994363;28;20361;-86
2021/03/17 00:45:30;;;;;;;8.05;3.83;;;10.30;99.90;;;;;;4984398;28;20423;-86
2021/03/17 00:47:57;;;;;;;9.82;4.00;;;10.30;99.90;;;;;;4990344;28;20077;-86
2021/03/17 00:50:24;;;;;;;5.95;3.70;;;10.30;99.90;;;;;;4992374;28;20042;-86
2021/03/17 00:52:54;;;;;;;6.40;4.10;;;10.30;99.90;;;;;;4989978;28;20442;-86
2021/03/17 00:55:20;;;;;;;7.65;4.03;;;10.30;99.90;;;;;;4994114;28;20089;-87
2021/03/17 00:57:47;;;;;;;8.02;4.18;;;10.30;99.90;;;;;;4993196;28;20567;-86
2021/03/17 01:00:14;;;;;;;9.93;5.05;;;10.30;99.90;;;;;;4988461;28;20046;-87
2021/03/17 01:02:41;;;;;;;6.72;3.85;;;10.30;99.90;;;;;;4987582;28;20111;-87
2021/03/17 01:05:09;;;;;;;5.38;4.30;;;10.30;99.90;;;;;;4990684;28;20058;-86
2021/03/17 01:07:36;;;;;;;9.02;4.65;;;10.30;99.90;;;;;;4992082;28;20045;-86
2021/03/17 01:10:13;;;;;;;8.25;4.07;;;10.30;99.90;;;;;;5013020;28;20042;-86
2021/03/17 01:12:41;;;;;;;7.70;4.53;;;10.30;99.90;;;;;;5023808;28;20065;-86
2021/03/17 01:15:12;;;;;;;9.38;4.40;;;10.30;99.90;;;;;;5007544;28;20058;-87
2021/03/17 01:17:40;;;;;;;10.05;4.88;;;10.30;99.90;;;;;;5004019;28;20550;-86
2021/03/17 01:20:08;;;;;;;7.78;4.82;;;10.30;99.90;;;;;;5009070;28;20050;-86
2021/03/17 01:22:35;;;;;;;6.97;4.43;;;10.40;99.90;;;;;;5007779;28;20042;-86
2021/03/17 01:25:03;;;;;;;7.68;4.78;;;10.30;99.90;;;;;;5006826;28;20442;-85
2021/03/17 01:27:29;;;;;;;11.25;4.38;;;10.30;99.90;;;;;;5007620;28;20141;-86
2021/03/17 01:29:56;;;;;;;10.10;4.97;;;10.30;99.90;;;;;;5008581;28;20088;-86
2021/03/17 01:32:23;;;;;;;8.55;4.45;;;10.30;99.90;;;;;;5011195;28;22658;-87
2021/03/17 01:34:50;;;;;;;8.65;4.85;;;10.20;99.90;;;;;;5009264;28;20137;-86
2021/03/17 01:37:16;;;;;;;7.78;4.85;;;10.20;99.90;;;;;;5001200;28;20527;-86
2021/03/17 01:39:45;;;;;;;10.00;4.65;;;10.20;99.90;;;;;;5010408;28;20049;-86
2021/03/17 01:42:11;;;;;;;9.98;5.10;;;10.10;99.90;;;;;;5007958;28;20475;-87
2021/03/17 01:44:38;;;;;;;12.50;5.63;;;10.10;99.90;;;;;;5007803;28;20045;-86
2021/03/17 01:47:05;;;;;;;8.15;5.70;;;10.00;99.90;;;;;;5011336;28;20045;-86
2021/03/17 01:49:32;;;;;;;10.35;5.47;;;10.00;99.90;;;;;;5011353;28;20069;-86
2021/03/17 01:51:58;;;;;;;8.75;6.20;;;9.90;99.90;;;;;;5009491;28;20050;-87
2021/03/17 01:54:25;;;;;;;10.32;5.90;;;9.90;99.90;;;;;;5010858;28;20113;-86
2021/03/17 01:56:52;;;;;;;10.52;5.80;;;9.80;99.90;;;;;;5010764;28;20062;-86
2021/03/17 01:59:20;;;;;;;10.55;5.65;;;9.80;99.90;;;;;;5010349;28;20069;-87
2021/03/17 02:01:46;;;;;;;10.40;6.20;;;9.80;99.90;;;;;;5011762;28;20042;-86
2021/03/17 02:04:14;;;;;;;9.55;6.10;;;9.70;99.90;;;;;;5011878;28;20146;-87
2021/03/17 02:06:40;;;;;;;9.43;5.88;;;9.70;99.90;;;;;;5006498;28;20120;-86
2021/03/17 02:09:08;;;;;;;10.15;5.75;;;9.70;99.90;;;;;;5006961;28;20074;-86
2021/03/17 02:11:42;;;;;;;8.73;5.93;;;9.60;99.90;;;;;;5000756;28;20045;-86
2021/03/17 02:14:25;;;;;;;8.02;6.28;;;9.60;99.90;;;;;;4991166;28;20480;-86
2021/03/17 02:17:01;;;;;;;11.23;6.13;;;9.60;99.90;;;;;;4991999;28;20052;-85
2021/03/17 02:19:44;;;;;;;14.60;7.25;;;9.50;99.90;;;;;;4990813;28;20116;-86
2021/03/17 02:22:22;;;;;;;12.70;6.53;;;9.50;99.90;;;;;;5007507;28;20056;-86
2021/03/17 02:25:17;;;;;;;12.80;6.95;;;9.40;99.90;;;;;;4996290;28;20062;-86
2021/03/17 02:28:15;;;;;;;12.25;6.78;;;9.30;99.90;;;;;;5025769;28;20480;-86
2021/03/17 02:31:06;;;;;;;12.70;7.15;;;9.30;99.90;;;;;;4994989;28;20034;-86
2021/03/17 02:34:01;;;;;;;12.57;6.35;;;9.20;99.90;;;;;;5005658;28;20551;-86
2021/03/17 02:36:36;;;;;;;10.90;7.15;;;9.10;99.90;;;;;;4999699;28;20058;-86
2021/03/17 02:39:18;;;;;;;12.30;7.47;;;9.00;99.90;;;;;;5003869;28;20071;-86
2021/03/17 02:42:14;;;;;;;16.92;7.20;;;9.00;99.90;;;;;;4999518;28;20046;-86
2021/03/17 02:44:55;;;;;;;12.23;7.50;;;9.00;99.90;;;;;;5009525;28;20065;-86
2021/03/17 02:47:25;;;;;;;11.65;6.88;;;8.90;99.90;;;;;;4996076;28;20054;-86
2021/03/17 02:49:55;;;;;;;12.88;7.70;;;8.90;99.90;;;;;;4983943;28;20073;-86
2021/03/17 02:52:23;;;;;;;11.27;6.65;;;8.80;99.90;;;;;;4984055;28;20115;-86
2021/03/17 02:54:50;;;;;;;13.73;6.13;;;8.80;99.90;;;;;;4994880;28;20048;-86
2021/03/17 02:57:21;;;;;;;11.18;6.10;;;8.70;99.90;;;;;;4993585;28;20056;-85
2021/03/17 02:59:54;;;;;;;10.40;6.22;;;8.70;99.90;;;;;;4992940;28;20050;-85
2021/03/17 03:02:21;;;;;;;12.45;6.70;;;8.70;99.90;;;;;;4992402;28;20045;-85
2021/03/17 03:04:50;;;;;;;12.18;7.82;;;8.60;99.90;;;;;;4992774;28;20137;-86
2021/03/17 03:07:17;;;;;;;13.55;7.50;;;8.50;99.90;;;;;;4992439;28;20094;-86
2021/03/17 03:09:46;;;;;;;9.27;6.72;;;8.50;99.90;;;;;;4999118;28;20052;-85
2021/03/17 03:12:14;;;;;;;12.95;6.65;;;8.40;99.90;;;;;;5008032;28;20045;-86
2021/03/17 03:14:42;;;;;;;11.43;6.65;;;8.40;99.90;;;;;;5010297;28;20053;-86
2021/03/17 03:17:10;;;;;;;9.80;6.65;;;8.30;99.90;;;;;;5008052;28;20046;-86
2021/03/17 03:19:48;;;;;;;14.45;6.88;;;8.30;99.90;;;;;;5009511;28;20069;-85
2021/03/17 03:22:15;;;;;;;12.80;7.00;;;8.20;99.90;;;;;;5008965;28;20058;-86
2021/03/17 03:24:43;;;;;;;10.75;6.10;;;8.20;99.90;;;;;;5010250;28;20486;-85
2021/03/17 03:27:12;;;;;;;10.93;6.07;;;8.10;99.90;;;;;;5008271;28;20042;-86
2021/03/17 03:29:39;;;;;;;14.02;6.75;;;8.00;99.90;;;;;;5009655;28;20034;-86
2021/03/17 03:32:06;;;;;;;17.88;7.40;;;8.00;99.90;;;;;;5006558;28;20077;-85
2021/03/17 03:34:34;;;;;;;16.17;7.07;;;8.00;99.90;;;;;;5008829;28;20451;-86
2021/03/17 03:37:00;;;;;;;18.23;7.75;;;8.00;99.90;;;;;;5008591;28;20058;-86
2021/03/17 03:39:27;;;;;;;15.43;7.63;;;8.00;99.90;;;;;;5008593;28;20038;-86
2021/03/17 03:41:54;;;;;;;12.55;7.10;;;8.00;99.90;;;;;;5006055;28;20452;-86
2021/03/17 03:44:21;;;;;;;18.73;7.25;;;8.10;99.90;;;;;;5005827;28;20046;-86
2021/03/17 03:46:48;;;;;;;14.55;7.68;;;8.20;99.90;;;;;;5010748;28;20049;-86
2021/03/17 03:49:15;;;;;;;19.00;7.05;;;8.20;99.90;;;;;;5009244;28;20054;-86
2021/03/17 03:52:07;;;;;;;19.30;6.55;;;8.20;99.90;;;;;;5010564;28;20519;-86
2021/03/17 03:54:37;;;;;;;19.02;6.85;;;8.20;99.90;;;;;;5009311;28;20041;-86
2021/03/17 03:57:23;;;;;;;12.10;7.10;;;8.30;99.90;;;;;;5009510;28;20120;-86
2021/03/17 03:59:56;;;;;;;13.43;5.60;;;8.30;99.90;;;;;;5008363;28;20053;-86
2021/03/17 04:02:26;;;;;;;13.30;5.53;;;8.30;99.90;;;;;;5006434;28;20045;-87
2021/03/17 04:04:57;;;;;;;8.40;4.90;;;8.30;99.90;;;;;;5006337;28;20410;-86
2021/03/17 04:07:25;;;;;;;11.18;4.70;;;8.40;99.90;;;;;;5008892;28;20060;-86
2021/03/17 04:09:53;;;;;;;13.45;4.72;;;8.40;99.90;;;;;;5004203;28;20053;-86
2021/03/17 04:12:22;;;;;;;11.07;4.82;;;8.30;99.90;;;;;;4990232;28;20138;-86
2021/03/17 04:14:50;;;;;;;;;;;8.30;99.90;;;;;;4991912;28;20061;-86
2021/03/17 04:17:23;;;;;;;19.65;5.00;;;8.40;99.90;;;;;;4993497;28;20017;-86
2021/03/17 04:19:56;;;;;;;12.80;4.45;;;8.40;99.90;;;;;;4990288;28;20054;-86
2021/03/17 04:22:24;;;;;;;13.55;4.78;;;8.40;99.90;;;;;;4976132;28;20045;-86
2021/03/17 04:24:53;;;;;;;12.75;4.30;;;8.30;99.90;;;;;;5008130;28;20046;-86
2021/03/17 04:27:21;;;;;;;13.40;4.80;;;8.30;99.90;;;;;;4992967;28;20394;-86
2021/03/17 04:29:51;;;;;;;16.17;4.47;;;8.30;99.90;;;;;;4994165;28;20060;-86
2021/03/17 04:32:19;;;;;;;13.98;4.05;;;8.30;99.90;;;;;;4996910;28;20050;-86
2021/03/17 04:34:46;;;;;;;12.82;4.03;;;8.30;99.90;;;;;;4993259;28;20107;-86
2021/03/17 04:37:14;;;;;;;12.77;4.05;;;8.30;99.90;;;;;;4991794;28;20084;-86
2021/03/17 04:39:41;;;;;;;15.30;4.15;;;8.30;99.90;;;;;;4994149;28;20391;-86
2021/03/17 04:42:08;;;;;;;13.98;4.15;;;8.30;99.90;;;;;;4986604;28;20406;-86
2021/03/17 04:44:37;;;;;;;11.77;4.10;;;8.30;99.90;;;;;;4994105;28;20050;-86
2021/03/17 04:47:19;;;;;;;16.92;4.68;;;8.30;99.90;;;;;;4990363;28;20505;-86
2021/03/17 04:49:48;;;;;;;11.05;4.28;;;8.30;99.90;;;;;;4994726;28;20038;-86
2021/03/17 04:52:17;;;;;;;14.50;4.60;;;8.20;99.90;;;;;;4991033;28;20049;-86
2021/03/17 04:54:44;;;;;;;12.60;4.32;;;8.20;99.90;;;;;;5010399;28;20045;-86
2021/03/17 04:57:18;;;;;;;12.85;3.85;;;8.20;99.90;;;;;;4991390;28;20056;-86
2021/03/17 04:59:46;;;;;;;11.65;4.68;;;8.20;99.90;;;;;;4990090;28;20125;-86
2021/03/17 05:02:16;;;;;;;12.00;4.68;;;8.20;99.90;;;;;;4996799;28;20045;-86
2021/03/17 05:04:45;;;;;;;17.42;4.32;;;8.10;99.90;;;;;;4998091;28;20052;-85
2021/03/17 05:07:14;;;;;;;14.85;4.40;;;8.10;99.90;;;;;;5009113;28;20057;-86
2021/03/17 05:09:40;;;;;;;;;;;8.10;99.90;;;;;;5004786;28;20572;-85
2021/03/17 05:12:09;;;;;;;15.77;4.22;;;8.10;99.90;;;;;;4994421;28;19929;-85
2021/03/17 05:14:36;;;;;;;16.60;4.45;;;8.00;99.90;;;;;;4996207;28;20044;-86
2021/03/17 05:17:04;;;;;;;21.02;4.70;;;8.00;99.90;;;;;;4995438;28;20053;-86
2021/03/17 05:19:32;;;;;;;14.30;4.53;;;7.90;99.90;;;;;;4994020;28;20464;-86
2021/03/17 05:22:00;;;;;;;14.50;4.53;;;7.90;99.90;;;;;;5011747;28;20050;-85
2021/03/17 05:24:28;;;;;;;13.55;4.70;;;7.90;99.90;;;;;;5006012;28;20041;-87
2021/03/17 05:26:55;;;;;;;14.75;4.30;;;7.90;99.90;;;;;;4998953;28;20248;-85
2021/03/17 05:29:24;;;;;;;20.52;5.22;;;7.80;99.90;;;;;;4994783;28;20046;-85
2021/03/17 05:31:52;;;;;;;16.65;4.55;;;7.80;99.90;;;;;;5008987;28;20053;-86
2021/03/17 05:34:20;;;;;;;17.27;5.00;;;7.70;99.90;;;;;;4993581;28;20054;-87
2021/03/17 05:36:47;;;;;;;14.10;4.80;;;7.70;99.90;;;;;;4995344;28;20042;-85
2021/03/17 05:39:15;;;;;;;13.63;4.70;;;7.70;99.90;;;;;;4996075;28;20045;-86
2021/03/17 05:41:41;;;;;;;22.60;5.13;;;7.70;99.90;;;;;;4997014;28;20048;-86
2021/03/17 05:44:09;;;;;;;23.00;5.68;;;7.70;99.90;;;;;;5003951;28;20061;-85
2021/03/17 05:46:37;;;;;;;18.70;5.00;;;7.60;99.90;;;;;;5000103;28;20042;-86
2021/03/17 05:49:04;;;;;;;15.25;5.05;;;7.60;99.90;;;;;;4995355;28;20050;-85
2021/03/17 05:51:33;;;;;;;13.68;4.78;;;7.60;99.90;;;;;;4998606;28;20048;-86
2021/03/17 05:54:00;;;;;;;18.40;5.80;;;7.60;99.90;;;;;;4999398;28;20077;-86
2021/03/17 05:56:29;;;;;;;17.83;5.35;;;7.60;99.90;;;;;;5008371;28;20053;-86
2021/03/17 05:59:00;;;;;;;22.30;6.50;;;7.60;99.90;;;;;;4993123;28;20161;-85
2021/03/17 06:01:28;;;;;;;18.25;5.55;;;7.60;99.90;;;;;;4999374;28;20068;-86
2021/03/17 06:03:57;;;;;;;18.92;5.88;;;7.50;99.90;;;;;;4995831;28;20053;-85
2021/03/17 06:06:28;;;;;;;22.77;5.93;;;7.50;99.90;;;;;;4997582;28;20049;-85
2021/03/17 06:08:59;;;;;;;23.15;6.13;;;7.50;99.90;;;;;;4999954;28;20050;-86
2021/03/17 06:11:27;;;;;;;29.05;7.10;;;7.50;99.90;;;;;;5005773;28;20053;-86
2021/03/17 06:13:56;;;;;;;19.92;5.85;;;7.50;99.90;;;;;;5000458;28;20056;-86
2021/03/17 06:16:24;;;;;;;25.23;5.63;;;7.50;99.90;;;;;;5006262;28;20057;-84
2021/03/17 06:18:55;;;;;;;23.58;6.25;;;7.50;99.90;;;;;;5010214;28;20050;-86
2021/03/17 06:21:22;;;;;;;24.83;6.25;;;7.50;99.90;;;;;;5013062;28;20517;-86
2021/03/17 06:23:51;;;;;;;25.98;6.28;;;7.40;99.90;;;;;;4994312;28;20104;-85
2021/03/17 06:26:18;;;;;;;21.13;6.05;;;7.40;99.90;;;;;;4993117;28;20045;-86
2021/03/17 06:28:46;;;;;;;29.40;6.53;;;7.40;99.90;;;;;;4996815;28;20071;-85
2021/03/17 06:31:19;;;;;;;21.30;5.88;;;7.40;99.90;;;;;;4995124;28;20480;-85
2021/03/17 06:33:46;;;;;;;27.13;5.78;;;7.40;99.90;;;;;;5002071;28;20052;-85
2021/03/17 06:36:16;;;;;;;23.38;6.20;;;7.40;99.90;;;;;;4994685;28;20502;-86
2021/03/17 06:38:44;;;;;;;28.77;6.63;;;7.40;99.90;;;;;;4998485;28;20050;-86
2021/03/17 06:41:13;;;;;;;26.55;6.55;;;7.40;99.90;;;;;;4995421;28;20046;-86
2021/03/17 06:43:49;;;;;;;22.60;6.68;;;7.30;99.90;;;;;;5008704;28;20423;-86
2021/03/17 06:46:20;;;;;;;20.40;6.75;;;7.30;99.90;;;;;;4993691;28;20054;-86
2021/03/17 06:49:04;;;;;;;27.77;6.90;;;7.30;99.90;;;;;;4997016;28;20070;-86
2021/03/17 06:51:32;;;;;;;24.40;6.97;;;7.40;99.90;;;;;;5001278;28;20054;-86
2021/03/17 06:54:00;;;;;;;24.77;8.25;;;7.40;99.90;;;;;;5007460;28;20053;-86
2021/03/17 06:56:27;;;;;;;21.30;6.55;;;7.40;99.90;;;;;;4993923;28;20137;-86
2021/03/17 06:59:04;;;;;;;27.55;7.20;;;7.40;99.90;;;;;;4995270;28;20045;-86
2021/03/17 07:01:37;;;;;;;23.02;7.00;;;7.40;99.90;;;;;;4986544;28;20045;-86
2021/03/17 07:04:32;;;;;;;24.33;7.43;;;7.50;99.90;;;;;;5010466;28;20487;-89
2021/03/17 07:07:02;;;;;;;25.20;7.35;;;7.50;99.90;;;;;;4994410;28;20475;-87
2021/03/17 07:09:31;;;;;;;29.67;7.43;;;7.60;99.90;;;;;;4987961;28;20037;-86
2021/03/17 07:12:11;;;;;;;20.38;7.05;;;7.60;99.90;;;;;;5010014;28;20063;-86
2021/03/17 07:14:40;;;;;;;26.70;7.60;;;7.60;99.90;;;;;;4996714;28;20121;-87
2021/03/17 07:17:32;;;;;;;19.95;8.02;;;7.70;99.90;;;;;;5000061;28;20049;-86
2021/03/17 07:20:01;;;;;;;28.20;8.07;;;7.80;99.90;;;;;;4990100;28;20076;-85
2021/03/17 07:22:27;;;;;;;22.10;7.20;;;7.80;99.90;;;;;;4994849;28;20053;-86
2021/03/17 07:25:05;;;;;;;23.33;6.63;;;7.90;99.90;;;;;;5015694;28;20489;-85
2021/03/17 07:27:34;;;;;;;26.57;6.63;;;7.90;99.90;;;;;;5017152;28;20046;-86
2021/03/17 07:30:04;;;;;;;23.40;10.02;;;8.00;99.90;;;;;;4993499;28;20277;-86
2021/03/17 07:33:00;;;;;;;25.60;9.07;;;8.00;99.90;;;;;;4999944;28;20084;-86
2021/03/17 07:35:33;;;;;;;27.38;8.63;;;8.10;99.90;;;;;;4997242;28;20048;-85
2021/03/17 07:38:06;;;;;;;26.75;8.30;;;8.10;99.90;;;;;;5018293;28;20475;-86
2021/03/17 07:40:46;;;;;;;33.88;8.32;;;8.20;99.90;;;;;;4996162;28;20061;-86
2021/03/17 07:43:16;;;;;;;27.67;8.25;;;8.30;99.90;;;;;;4992789;28;21002;-86
2021/03/17 07:45:44;;;;;;;19.45;7.57;;;8.40;99.90;;;;;;4995200;28;20077;-85
2021/03/17 07:48:12;;;;;;;22.25;7.35;;;8.50;99.90;;;;;;4984859;28;20093;-86
2021/03/17 07:50:41;;;;;;;20.42;7.80;;;8.50;99.90;;;;;;4993947;28;20069;-86
2021/03/17 07:53:25;;;;;;;21.23;7.45;;;8.60;99.90;;;;;;4991985;28;20057;-86
2021/03/17 07:55:56;;;;;;;23.45;7.50;;;8.70;99.90;;;;;;4992117;28;20045;-86
2021/03/17 07:58:23;;;;;;;19.60;8.25;;;8.80;99.90;;;;;;4977164;28;20061;-87
2021/03/17 08:00:50;;;;;;;23.17;7.18;;;8.80;99.90;;;;;;4994878;28;20055;-86
2021/03/17 08:03:20;;;;;;;20.58;7.30;;;9.00;99.90;;;;;;4990177;28;20551;-87
2021/03/17 08:05:47;;;;;;;23.70;7.35;;;9.10;99.90;;;;;;4988710;28;20468;-86
2021/03/17 08:08:15;;;;;;;17.15;7.10;;;9.10;99.90;;;;;;4985497;28;20131;-86
2021/03/17 08:10:46;;;;;;;23.63;7.35;;;9.20;99.90;;;;;;5004620;28;20038;-85
2021/03/17 08:13:14;;;;;;;18.92;6.80;;;9.30;99.90;;;;;;5007124;28;20546;-86
2021/03/17 08:15:44;;;;;;;32.50;9.98;;;9.40;99.90;;;;;;5015881;28;20534;-86
2021/03/17 08:18:31;;;;;;;24.83;7.43;;;9.50;99.90;;;;;;5010026;28;20050;-86
2021/03/17 08:20:59;;;;;;;21.98;7.07;;;9.50;99.90;;;;;;5010334;28;20122;-85
2021/03/17 08:23:51;;;;;;;18.48;7.03;;;9.60;99.90;;;;;;5003517;28;20070;-86
2021/03/17 08:26:23;;;;;;;18.05;6.35;;;9.80;99.90;;;;;;4999169;28;20053;-86
2021/03/17 08:28:52;;;;;;;21.77;6.55;;;9.90;99.90;;;;;;5008708;28;20057;-85
2021/03/17 08:31:37;;;;;;;17.85;6.07;;;9.90;99.90;;;;;;5005060;28;20046;-86
2021/03/17 08:34:25;;;;;;;17.88;6.18;;;10.10;99.90;;;;;;5021093;28;20042;-86
2021/03/17 08:36:56;;;;;;;19.15;5.88;;;10.20;99.90;;;;;;5002447;28;20050;-85
2021/03/17 08:39:35;;;;;;;20.15;5.47;;;10.30;99.90;;;;;;5023365;28;20100;-86
2021/03/17 08:42:05;;;;;;;;;;;10.40;99.90;;;;;;5005950;28;20041;-86
2021/03/17 08:44:38;;;;;;;17.33;6.15;;;10.50;99.90;;;;;;5005080;28;20027;-86
2021/03/17 08:47:23;;;;;;;13.82;5.45;;;10.60;99.90;;;;;;5000270;28;20046;-86
2021/03/17 08:49:52;;;;;;;16.92;6.25;;;10.80;99.90;;;;;;5010180;28;20133;-86
2021/03/17 08:52:20;;;;;;;12.35;4.95;;;10.80;99.90;;;;;;5015949;28;20467;-87
2021/03/17 08:54:52;;;;;;;16.90;5.32;;;10.90;99.90;;;;;;5016023;28;20069;-86
2021/03/17 08:57:20;;;;;;;13.38;4.63;;;11.10;99.90;;;;;;5008963;28;20057;-86
2021/03/17 08:59:56;;;;;;;13.73;5.00;;;11.10;99.90;;;;;;5004628;28;20050;-87
2021/03/17 09:02:25;;;;;;;15.02;4.50;;;11.20;99.90;;;;;;5005013;28;20069;-86
2021/03/17 09:04:58;;;;;;;13.65;4.90;;;11.30;99.90;;;;;;5007562;28;20137;-87
2021/03/17 09:07:26;;;;;;;21.08;5.97;;;11.30;99.90;;;;;;4999226;28;20058;-86
2021/03/17 09:10:13;;;;;;;15.45;4.78;;;11.40;99.90;;;;;;5000060;28;20053;-86
2021/03/17 09:12:43;;;;;;;13.73;4.60;;;11.50;99.90;;;;;;5007372;28;20458;-86
2021/03/17 09:15:13;;;;;;;19.48;4.97;;;11.60;99.90;;;;;;4992649;28;20054;-85
2021/03/17 09:17:57;;;;;;;18.23;5.35;;;11.70;99.90;;;;;;4991853;28;20057;-86
2021/03/17 09:20:38;;;;;;;19.83;5.28;;;11.80;99.90;;;;;;4992596;28;20048;-86
2021/03/17 09:23:08;;;;;;;15.85;5.47;;;11.80;99.90;;;;;;4992248;28;20049;-86
2021/03/17 09:25:56;;;;;;;16.55;5.45;;;11.90;99.90;;;;;;4991852;28;20046;-86
2021/03/17 09:28:31;;;;;;;16.85;5.43;;;11.90;99.90;;;;;;4991939;28;20058;-86
2021/03/17 09:31:02;;;;;;;17.27;5.72;;;12.00;99.90;;;;;;4989299;28;20049;-86
2021/03/17 09:33:42;;;;;;;15.32;5.05;;;12.00;99.90;;;;;;4991570;28;20515;-85
2021/03/17 09:36:24;;;;;;;14.48;6.03;;;12.10;99.90;;;;;;4986546;28;20488;-85
2021/03/17 09:38:55;;;;;;;16.65;5.35;;;12.10;99.90;;;;;;4987473;28;20137;-86
2021/03/17 09:41:27;;;;;;;15.68;6.25;;;12.20;99.90;;;;;;4992063;28;20128;-85
2021/03/17 09:44:04;;;;;;;20.70;5.97;;;12.10;99.90;;;;;;4992616;28;20069;-85
2021/03/17 09:46:36;;;;;;;15.38;5.53;;;12.20;99.90;;;;;;4997267;28;20053;-85
2021/03/17 09:49:19;;;;;;;15.27;5.18;;;12.30;99.90;;;;;;5006963;28;20085;-85
2021/03/17 09:51:47;;;;;;;17.15;5.40;;;12.40;99.90;;;;;;4993867;28;20100;-85
2021/03/17 09:54:17;;;;;;;16.95;5.20;;;12.50;99.90;;;;;;5009037;28;20049;-85
2021/03/17 09:56:48;;;;;;;15.65;4.68;;;12.60;99.90;;;;;;4996824;28;20080;-85
2021/03/17 09:59:34;;;;;;;12.70;4.97;;;12.60;99.90;;;;;;4995410;28;20046;-85
2021/03/17 10:02:04;;;;;;;11.13;5.03;;;12.70;99.90;;;;;;4984515;28;20127;-85
2021/03/17 10:04:38;;;;;;;14.45;5.28;;;12.80;99.90;;;;;;4993259;28;20510;-84
2021/03/17 10:07:06;;;;;;;13.57;4.95;;;12.90;99.90;;;;;;4996519;28;20108;-85
2021/03/17 10:09:35;;;;;;;15.27;4.50;;;13.10;99.90;;;;;;5000443;28;20045;-85
2021/03/17 10:12:05;;;;;;;;;;;13.20;99.90;;;;;;4998677;28;20050;-86
2021/03/17 10:14:32;;;;;;;15.48;5.45;;;13.40;99.90;;;;;;4996864;28;20339;-86
2021/03/17 10:17:01;;;;;;;16.38;4.88;;;13.50;99.90;;;;;;4998430;28;20104;-85
2021/03/17 10:19:30;;;;;;;10.02;4.10;;;13.70;99.90;;;;;;4994366;28;20046;-86
2021/03/17 10:21:57;;;;;;;11.10;5.30;;;13.80;99.90;;;;;;4996749;28;20045;-85
2021/03/17 10:24:31;;;;;;;15.20;5.32;;;13.90;99.90;;;;;;4994377;28;20116;-85
2021/03/17 10:26:58;;;;;;;15.98;5.53;;;14.00;99.90;;;;;;5010742;28;20052;-86
2021/03/17 10:29:24;;;;;;;14.07;5.30;;;14.10;99.90;;;;;;4994281;28;20171;-85
2021/03/17 10:31:55;;;;;;;13.07;5.25;;;14.10;99.90;;;;;;4993326;28;20480;-85
2021/03/17 10:34:27;;;;;;;14.32;5.95;;;14.10;99.90;;;;;;4977369;28;20058;-85
2021/03/17 10:36:56;;;;;;;14.45;5.60;;;14.10;99.90;;;;;;4990254;28;20132;-86
2021/03/17 10:39:27;;;;;;;13.88;5.10;;;14.20;99.90;;;;;;4993766;28;20050;-86
2021/03/17 10:41:55;;;;;;;13.48;5.97;;;14.30;99.90;;;;;;4996518;28;20050;-86
2021/03/17 10:44:26;;;;;;;18.02;6.82;;;14.40;99.90;;;;;;4995694;28;20042;-85
2021/03/17 10:47:03;;;;;;;15.68;6.28;;;14.40;99.90;;;;;;4995380;28;20439;-85
2021/03/17 10:49:32;;;;;;;13.90;5.35;;;14.40;99.90;;;;;;4989014;28;23137;-86
2021/03/17 10:52:06;;;;;;;15.70;5.68;;;14.30;99.90;;;;;;4994094;28;20045;-86
2021/03/17 10:54:39;;;;;;;13.73;5.60;;;14.30;99.90;;;;;;4989746;28;20046;-85
2021/03/17 10:57:08;;;;;;;14.07;6.07;;;14.30;99.90;;;;;;4994143;28;20472;-86
2021/03/17 10:59:37;;;;;;;15.47;5.33;;;14.20;99.90;;;;;;4988727;28;20089;-87
2021/03/17 11:02:23;;;;;;;15.93;5.43;;;14.30;99.90;;;;;;4990270;28;20484;-85
2021/03/17 11:05:22;;;;;;;15.13;4.47;;;14.30;99.90;;;;;;4993427;28;20088;-86
2021/03/17 11:08:09;;;;;;;17.02;5.47;;;14.30;99.90;;;;;;4986336;28;20073;-85
2021/03/17 11:10:49;;;;;;;12.40;5.18;;;14.40;99.90;;;;;;4990730;28;20045;-86
2021/03/17 11:13:18;;;;;;;12.00;5.75;;;14.40;99.90;;;;;;5000956;28;20439;-85
2021/03/17 11:15:57;;;;;;;9.45;3.97;;;14.40;99.90;;;;;;5012878;28;20111;-85
2021/03/17 11:18:29;;;;;;;;;;;14.40;99.90;;;;;;5014346;28;20147;-85
2021/03/17 11:21:08;;;;;;;10.45;3.85;;;14.50;99.90;;;;;;5008716;28;20239;-85
2021/03/17 11:23:41;;;;;;;18.48;4.40;;;14.60;99.90;;;;;;5008826;28;20120;-85
2021/03/17 11:26:28;;;;;;;10.77;4.30;;;14.70;99.90;;;;;;5017688;28;20054;-85
2021/03/17 11:28:56;;;;;;;10.25;3.95;;;14.80;99.90;;;;;;5018059;28;20057;-84
2021/03/17 11:31:32;;;;;;;7.93;3.55;;;14.80;99.90;;;;;;4997956;28;20054;-85
2021/03/17 11:34:00;;;;;;;10.70;4.13;;;14.90;99.90;;;;;;5007679;28;20084;-85
2021/03/17 11:36:29;;;;;;;10.95;4.13;;;15.00;99.90;;;;;;5007840;28;20097;-85
2021/03/17 11:38:58;;;;;;;9.85;3.80;;;15.10;99.90;;;;;;5006179;28;20045;-85
2021/03/17 11:41:26;;;;;;;11.02;3.72;;;15.10;99.90;;;;;;5010348;28;20053;-86
2021/03/17 11:43:53;;;;;;;10.30;3.97;;;15.20;99.90;;;;;;5010646;28;20460;-86
2021/03/17 11:46:20;;;;;;;12.23;3.75;;;15.20;99.90;;;;;;5008851;28;20125;-86
2021/03/17 11:48:47;;;;;;;11.20;3.40;;;15.20;99.90;;;;;;5012135;28;20037;-86
2021/03/17 11:51:15;;;;;;;13.45;3.05;;;15.20;99.90;;;;;;5010408;28;20119;-85
2021/03/17 11:53:42;;;;;;;10.55;3.40;;;15.30;99.90;;;;;;5010719;28;20046;-86
2021/03/17 11:56:09;;;;;;;8.88;3.13;;;15.30;99.90;;;;;;5003795;28;20053;-85
2021/03/17 11:58:37;;;;;;;5.90;2.40;;;15.40;99.90;;;;;;5026551;28;20041;-86
2021/03/17 12:01:05;;;;;;;5.82;3.00;;;15.40;99.90;;;;;;5010106;28;20039;-85
2021/03/17 12:03:38;;;;;;;9.63;2.92;;;15.40;99.90;;;;;;5007735;28;20439;-86
2021/03/17 12:06:06;;;;;;;12.32;3.40;;;15.50;99.90;;;;;;5009544;28;20434;-86
2021/03/17 12:08:34;;;;;;;9.73;3.67;;;15.50;99.90;;;;;;5013391;28;20427;-85
2021/03/17 12:11:14;;;;;;;10.02;3.22;;;15.60;99.90;;;;;;5009945;28;20054;-86
2021/03/17 12:13:41;;;;;;;9.35;3.67;;;15.60;99.90;;;;;;5009079;28;20042;-86
2021/03/17 12:16:08;;;;;;;7.97;3.85;;;15.80;99.90;;;;;;5007446;28;20066;-86
2021/03/17 12:18:35;;;;;;;10.45;3.58;;;15.80;99.90;;;;;;5012101;28;20038;-86
2021/03/17 12:21:02;;;;;;;8.48;3.72;;;15.90;99.90;;;;;;5004594;28;20042;-86
2021/03/17 12:23:28;;;;;;;10.65;3.67;;;15.90;99.90;;;;;;5008566;28;20042;-85
2021/03/17 12:25:55;;;;;;;8.73;3.25;;;16.00;99.90;;;;;;5009652;28;20181;-86
2021/03/17 12:28:22;;;;;;;10.85;3.67;;;16.10;99.90;;;;;;5002232;28;20395;-85
2021/03/17 12:30:48;;;;;;;14.00;6.30;;;16.10;99.90;;;;;;5011098;28;20077;-85
2021/03/17 12:33:15;;;;;;;13.52;6.05;;;16.00;99.90;;;;;;5004672;28;20056;-85
2021/03/17 12:35:42;;;;;;;17.23;7.68;;;16.00;99.90;;;;;;5003215;28;20042;-86
2021/03/17 12:38:08;;;;;;;16.45;7.25;;;16.00;99.90;;;;;;4996305;28;20050;-86
2021/03/17 12:40:36;;;;;;;21.15;7.22;;;15.90;99.90;;;;;;5010472;28;20041;-86
2021/03/17 12:43:02;;;;;;;15.57;6.53;;;15.90;99.90;;;;;;5014645;28;20046;-85
2021/03/17 12:45:42;;;;;;;12.75;6.15;;;15.90;99.90;;;;;;5013183;28;20077;-86
2021/03/17 12:48:10;;;;;;;16.23;6.20;;;15.90;99.90;;;;;;5010522;28;20041;-86
2021/03/17 12:50:37;;;;;;;16.67;5.43;;;15.90;99.90;;;;;;5009461;28;20038;-86
2021/03/17 12:53:04;;;;;;;16.15;5.65;;;15.80;99.90;;;;;;5005824;28;20038;-86
2021/03/17 12:55:31;;;;;;;15.40;6.25;;;15.80;99.90;;;;;;5008301;28;20098;-85
2021/03/17 12:57:58;;;;;;;17.50;5.80;;;15.60;99.90;;;;;;5010230;28;20069;-86
2021/03/17 13:00:27;;;;;;;15.20;5.28;;;15.50;99.90;;;;;;4999697;28;20050;-86
2021/03/17 13:02:54;;;;;;;15.13;5.50;;;15.40;99.90;;;;;;5005748;28;20049;-86
2021/03/17 13:05:21;;;;;;;14.75;5.10;;;15.40;99.90;;;;;;5008861;28;20046;-86